sensor_id;sensor_type;location;lat;lon;timestamp;P1;durP1;ratioP1;P2;durP2;ratioP2
40793;SDS011;26502;51.886;15.604;2022-10-16T00:02:04;10.40;;;5.70;;
40793;SDS011;26502;51.886;15.604;2022-10-16T00:07:12;7.60;;;4.60;;
40793;SDS011;26502;51.886;15.604;2022-10-16T00:12:19;8.00;;;4.90;;
40793;SDS011;26502;51.886;15.604;2022-10-16T00:17:27;5.50;;;4.90;;
40793;SDS011;26502;51.886;15.604;2022-10-16T00:22:35;6.90;;;4.70;;
40793;SDS011;26502;51.886;15.604;2022-10-16T00:27:43;6.90;;;4.60;;
40793;SDS011;26502;51.886;15.604;2022-10-16T00:32:54;5.70;;;4.50;;
40793;SDS011;26502;51.886;15.604;2022-10-16T00:38:03;8.20;;;4.60;;
40793;SDS011;26502;51.886;15.604;2022-10-16T00:48:42;7.40;;;5.50;;
40793;SDS011;26502;51.886;15.604;2022-10-16T00:53:54;6.60;;;5.00;;
40793;SDS011;26502;51.886;15.604;2022-10-16T00:59:03;8.00;;;5.70;;
40793;SDS011;26502;51.886;15.604;2022-10-16T01:04:16;7.20;;;5.40;;
40793;SDS011;26502;51.886;15.604;2022-10-16T01:09:24;5.60;;;5.00;;
40793;SDS011;26502;51.886;15.604;2022-10-16T01:14:40;6.10;;;5.40;;
40793;SDS011;26502;51.886;15.604;2022-10-16T01:19:57;10.90;;;5.50;;
40793;SDS011;26502;51.886;15.604;2022-10-16T01:25:11;9.70;;;5.80;;
40793;SDS011;26502;51.886;15.604;2022-10-16T01:30:24;8.10;;;6.00;;
40793;SDS011;26502;51.886;15.604;2022-10-16T01:35:36;8.20;;;5.50;;
40793;SDS011;26502;51.886;15.604;2022-10-16T01:40:47;8.20;;;6.30;;
40793;SDS011;26502;51.886;15.604;2022-10-16T01:46:00;7.10;;;5.80;;
40793;SDS011;26502;51.886;15.604;2022-10-16T01:51:08;6.70;;;6.00;;
40793;SDS011;26502;51.886;15.604;2022-10-16T01:56:20;10.40;;;6.00;;
40793;SDS011;26502;51.886;15.604;2022-10-16T02:01:30;7.90;;;6.40;;
40793;SDS011;26502;51.886;15.604;2022-10-16T02:06:40;6.80;;;6.10;;
40793;SDS011;26502;51.886;15.604;2022-10-16T02:11:47;11.00;;;6.60;;
40793;SDS011;26502;51.886;15.604;2022-10-16T02:16:59;9.70;;;6.30;;
40793;SDS011;26502;51.886;15.604;2022-10-16T02:22:06;11.20;;;7.00;;
40793;SDS011;26502;51.886;15.604;2022-10-16T02:27:22;7.90;;;6.90;;
40793;SDS011;26502;51.886;15.604;2022-10-16T02:32:37;8.90;;;7.00;;
40793;SDS011;26502;51.886;15.604;2022-10-16T02:37:47;7.60;;;6.20;;
40793;SDS011;26502;51.886;15.604;2022-10-16T02:42:55;10.30;;;7.20;;
40793;SDS011;26502;51.886;15.604;2022-10-16T02:48:02;8.60;;;7.00;;
40793;SDS011;26502;51.886;15.604;2022-10-16T02:53:10;12.20;;;6.50;;
40793;SDS011;26502;51.886;15.604;2022-10-16T02:58:18;8.30;;;6.40;;
40793;SDS011;26502;51.886;15.604;2022-10-16T03:03:26;13.60;;;6.70;;
40793;SDS011;26502;51.886;15.604;2022-10-16T03:08:33;8.30;;;7.40;;
40793;SDS011;26502;51.886;15.604;2022-10-16T03:13:41;8.10;;;5.70;;
40793;SDS011;26502;51.886;15.604;2022-10-16T03:18:49;6.50;;;5.90;;
40793;SDS011;26502;51.886;15.604;2022-10-16T03:23:57;8.20;;;6.60;;
40793;SDS011;26502;51.886;15.604;2022-10-16T03:29:04;6.80;;;6.10;;
40793;SDS011;26502;51.886;15.604;2022-10-16T03:34:11;11.00;;;6.70;;
40793;SDS011;26502;51.886;15.604;2022-10-16T03:39:19;7.50;;;6.40;;
40793;SDS011;26502;51.886;15.604;2022-10-16T03:44:26;9.40;;;6.40;;
40793;SDS011;26502;51.886;15.604;2022-10-16T03:49:33;9.00;;;5.50;;
40793;SDS011;26502;51.886;15.604;2022-10-16T03:54:40;6.50;;;5.90;;
40793;SDS011;26502;51.886;15.604;2022-10-16T03:59:47;6.20;;;5.60;;
40793;SDS011;26502;51.886;15.604;2022-10-16T04:04:55;5.60;;;5.00;;
40793;SDS011;26502;51.886;15.604;2022-10-16T04:10:02;6.80;;;6.10;;
40793;SDS011;26502;51.886;15.604;2022-10-16T04:15:11;8.30;;;5.80;;
40793;SDS011;26502;51.886;15.604;2022-10-16T04:20:18;9.00;;;6.00;;
40793;SDS011;26502;51.886;15.604;2022-10-16T04:25:26;8.30;;;6.40;;
40793;SDS011;26502;51.886;15.604;2022-10-16T04:30:33;9.40;;;5.80;;
40793;SDS011;26502;51.886;15.604;2022-10-16T04:35:42;6.50;;;5.80;;
40793;SDS011;26502;51.886;15.604;2022-10-16T04:40:49;9.50;;;6.30;;
40793;SDS011;26502;51.886;15.604;2022-10-16T04:45:56;10.80;;;6.10;;
40793;SDS011;26502;51.886;15.604;2022-10-16T04:51:04;13.80;;;6.20;;
40793;SDS011;26502;51.886;15.604;2022-10-16T04:56:11;6.40;;;5.70;;
40793;SDS011;26502;51.886;15.604;2022-10-16T05:01:18;7.90;;;6.40;;
40793;SDS011;26502;51.886;15.604;2022-10-16T05:06:26;12.50;;;6.40;;
40793;SDS011;26502;51.886;15.604;2022-10-16T05:11:33;8.40;;;5.90;;
40793;SDS011;26502;51.886;15.604;2022-10-16T05:16:41;12.90;;;6.50;;
40793;SDS011;26502;51.886;15.604;2022-10-16T05:21:48;9.90;;;6.60;;
40793;SDS011;26502;51.886;15.604;2022-10-16T05:26:55;10.80;;;6.30;;
40793;SDS011;26502;51.886;15.604;2022-10-16T05:32:02;7.70;;;6.30;;
40793;SDS011;26502;51.886;15.604;2022-10-16T05:37:09;9.40;;;5.70;;
40793;SDS011;26502;51.886;15.604;2022-10-16T05:42:17;6.20;;;5.50;;
40793;SDS011;26502;51.886;15.604;2022-10-16T05:47:24;6.30;;;5.50;;
40793;SDS011;26502;51.886;15.604;2022-10-16T05:52:31;10.70;;;5.90;;
40793;SDS011;26502;51.886;15.604;2022-10-16T05:57:38;9.10;;;5.90;;
40793;SDS011;26502;51.886;15.604;2022-10-16T06:02:46;6.80;;;6.00;;
40793;SDS011;26502;51.886;15.604;2022-10-16T06:07:53;7.30;;;6.60;;
40793;SDS011;26502;51.886;15.604;2022-10-16T06:13:00;8.70;;;6.40;;
40793;SDS011;26502;51.886;15.604;2022-10-16T06:18:07;7.30;;;6.00;;
40793;SDS011;26502;51.886;15.604;2022-10-16T06:23:14;5.50;;;4.90;;
40793;SDS011;26502;51.886;15.604;2022-10-16T06:28:21;12.90;;;6.10;;
40793;SDS011;26502;51.886;15.604;2022-10-16T06:33:34;7.50;;;5.90;;
40793;SDS011;26502;51.886;15.604;2022-10-16T06:38:42;7.50;;;6.70;;
40793;SDS011;26502;51.886;15.604;2022-10-16T06:43:50;6.80;;;6.00;;
40793;SDS011;26502;51.886;15.604;2022-10-16T06:48:57;6.90;;;6.20;;
40793;SDS011;26502;51.886;15.604;2022-10-16T06:54:04;10.00;;;6.80;;
40793;SDS011;26502;51.886;15.604;2022-10-16T06:59:11;8.80;;;6.00;;
40793;SDS011;26502;51.886;15.604;2022-10-16T07:04:19;13.40;;;6.10;;
40793;SDS011;26502;51.886;15.604;2022-10-16T07:09:26;7.50;;;6.50;;
40793;SDS011;26502;51.886;15.604;2022-10-16T07:14:34;8.20;;;6.20;;
40793;SDS011;26502;51.886;15.604;2022-10-16T07:19:40;6.40;;;5.90;;
40793;SDS011;26502;51.886;15.604;2022-10-16T07:24:47;7.60;;;6.40;;
40793;SDS011;26502;51.886;15.604;2022-10-16T07:29:57;7.70;;;6.80;;
40793;SDS011;26502;51.886;15.604;2022-10-16T07:35:05;7.60;;;6.70;;
40793;SDS011;26502;51.886;15.604;2022-10-16T07:40:13;10.20;;;6.90;;
40793;SDS011;26502;51.886;15.604;2022-10-16T07:45:22;8.30;;;7.50;;
40793;SDS011;26502;51.886;15.604;2022-10-16T07:50:30;8.40;;;7.60;;
40793;SDS011;26502;51.886;15.604;2022-10-16T07:55:38;9.00;;;8.10;;
40793;SDS011;26502;51.886;15.604;2022-10-16T08:00:46;10.80;;;8.60;;
40793;SDS011;26502;51.886;15.604;2022-10-16T08:05:54;9.40;;;8.40;;
40793;SDS011;26502;51.886;15.604;2022-10-16T08:11:04;9.30;;;8.30;;
40793;SDS011;26502;51.886;15.604;2022-10-16T08:16:12;10.60;;;8.50;;
40793;SDS011;26502;51.886;15.604;2022-10-16T08:21:19;9.20;;;8.30;;
40793;SDS011;26502;51.886;15.604;2022-10-16T08:26:27;6.90;;;6.30;;
40793;SDS011;26502;51.886;15.604;2022-10-16T08:31:35;7.00;;;5.90;;
40793;SDS011;26502;51.886;15.604;2022-10-16T08:36:42;7.30;;;5.60;;
40793;SDS011;26502;51.886;15.604;2022-10-16T08:42:15;10.90;;;8.40;;
40793;SDS011;26502;51.886;15.604;2022-10-16T08:47:39;10.10;;;6.90;;
40793;SDS011;26502;51.886;15.604;2022-10-16T08:52:53;8.60;;;6.10;;
40793;SDS011;26502;51.886;15.604;2022-10-16T08:58:05;7.30;;;6.20;;
40793;SDS011;26502;51.886;15.604;2022-10-16T09:03:21;21.30;;;17.10;;
40793;SDS011;26502;51.886;15.604;2022-10-16T09:08:40;6.30;;;5.40;;
40793;SDS011;26502;51.886;15.604;2022-10-16T09:13:59;6.20;;;5.50;;
40793;SDS011;26502;51.886;15.604;2022-10-16T09:19:13;9.40;;;5.20;;
40793;SDS011;26502;51.886;15.604;2022-10-16T09:24:26;6.90;;;4.30;;
40793;SDS011;26502;51.886;15.604;2022-10-16T09:29:35;5.00;;;4.50;;
40793;SDS011;26502;51.886;15.604;2022-10-16T09:34:43;5.50;;;4.20;;
40793;SDS011;26502;51.886;15.604;2022-10-16T09:39:53;4.70;;;4.30;;
40793;SDS011;26502;51.886;15.604;2022-10-16T09:45:01;4.40;;;4.00;;
40793;SDS011;26502;51.886;15.604;2022-10-16T09:50:19;4.40;;;4.00;;
40793;SDS011;26502;51.886;15.604;2022-10-16T09:55:29;9.70;;;5.30;;
40793;SDS011;26502;51.886;15.604;2022-10-16T10:00:37;4.20;;;3.80;;
40793;SDS011;26502;51.886;15.604;2022-10-16T10:05:54;9.40;;;5.30;;
40793;SDS011;26502;51.886;15.604;2022-10-16T10:11:03;7.60;;;5.90;;
40793;SDS011;26502;51.886;15.604;2022-10-16T10:16:10;7.30;;;5.10;;
40793;SDS011;26502;51.886;15.604;2022-10-16T10:21:17;5.40;;;3.80;;
40793;SDS011;26502;51.886;15.604;2022-10-16T10:31:34;3.50;;;3.20;;
40793;SDS011;26502;51.886;15.604;2022-10-16T10:36:49;3.10;;;2.80;;
40793;SDS011;26502;51.886;15.604;2022-10-16T10:42:13;4.90;;;4.00;;
40793;SDS011;26502;51.886;15.604;2022-10-16T10:47:30;5.50;;;3.50;;
40793;SDS011;26502;51.886;15.604;2022-10-16T10:52:47;5.20;;;4.80;;
40793;SDS011;26502;51.886;15.604;2022-10-16T10:58:08;7.40;;;4.80;;
40793;SDS011;26502;51.886;15.604;2022-10-16T11:03:35;3.80;;;3.40;;
40793;SDS011;26502;51.886;15.604;2022-10-16T11:08:57;4.60;;;3.40;;
40793;SDS011;26502;51.886;15.604;2022-10-16T11:14:14;3.50;;;2.80;;
40793;SDS011;26502;51.886;15.604;2022-10-16T11:19:28;2.70;;;2.50;;
40793;SDS011;26502;51.886;15.604;2022-10-16T11:24:42;5.10;;;2.20;;
40793;SDS011;26502;51.886;15.604;2022-10-16T11:29:57;4.90;;;2.90;;
40793;SDS011;26502;51.886;15.604;2022-10-16T11:35:11;5.10;;;2.80;;
40793;SDS011;26502;51.886;15.604;2022-10-16T11:40:27;2.30;;;2.10;;
40793;SDS011;26502;51.886;15.604;2022-10-16T11:45:39;3.70;;;2.60;;
40793;SDS011;26502;51.886;15.604;2022-10-16T11:50:50;4.20;;;3.50;;
40793;SDS011;26502;51.886;15.604;2022-10-16T11:56:01;2.20;;;2.10;;
40793;SDS011;26502;51.886;15.604;2022-10-16T12:01:13;1.90;;;1.80;;
40793;SDS011;26502;51.886;15.604;2022-10-16T12:11:37;7.20;;;2.20;;
40793;SDS011;26502;51.886;15.604;2022-10-16T12:16:51;4.30;;;2.00;;
40793;SDS011;26502;51.886;15.604;2022-10-16T12:22:02;6.80;;;1.50;;
40793;SDS011;26502;51.886;15.604;2022-10-16T12:27:25;1.20;;;1.10;;
40793;SDS011;26502;51.886;15.604;2022-10-16T12:32:36;3.00;;;1.70;;
40793;SDS011;26502;51.886;15.604;2022-10-16T12:37:47;3.30;;;1.80;;
40793;SDS011;26502;51.886;15.604;2022-10-16T12:42:54;2.20;;;2.10;;
40793;SDS011;26502;51.886;15.604;2022-10-16T12:48:02;2.40;;;2.10;;
40793;SDS011;26502;51.886;15.604;2022-10-16T12:53:24;2.10;;;1.70;;
40793;SDS011;26502;51.886;15.604;2022-10-16T12:58:37;2.10;;;1.80;;
40793;SDS011;26502;51.886;15.604;2022-10-16T13:09:43;3.80;;;2.00;;
40793;SDS011;26502;51.886;15.604;2022-10-16T13:15:11;2.20;;;2.00;;
40793;SDS011;26502;51.886;15.604;2022-10-16T13:20:42;3.50;;;2.20;;
40793;SDS011;26502;51.886;15.604;2022-10-16T13:26:05;4.50;;;2.20;;
40793;SDS011;26502;51.886;15.604;2022-10-16T13:31:20;4.90;;;3.20;;
40793;SDS011;26502;51.886;15.604;2022-10-16T13:36:29;3.50;;;2.30;;
40793;SDS011;26502;51.886;15.604;2022-10-16T13:41:41;4.00;;;2.20;;
40793;SDS011;26502;51.886;15.604;2022-10-16T13:46:59;3.30;;;2.40;;
40793;SDS011;26502;51.886;15.604;2022-10-16T13:52:15;8.20;;;3.20;;
40793;SDS011;26502;51.886;15.604;2022-10-16T13:57:25;3.20;;;2.30;;
40793;SDS011;26502;51.886;15.604;2022-10-16T14:02:33;4.20;;;2.40;;
40793;SDS011;26502;51.886;15.604;2022-10-16T14:07:44;2.60;;;2.20;;
40793;SDS011;26502;51.886;15.604;2022-10-16T14:13:00;2.40;;;2.20;;
40793;SDS011;26502;51.886;15.604;2022-10-16T14:18:15;1.60;;;1.50;;
40793;SDS011;26502;51.886;15.604;2022-10-16T14:23:30;1.20;;;1.20;;
40793;SDS011;26502;51.886;15.604;2022-10-16T14:28:41;1.50;;;1.40;;
40793;SDS011;26502;51.886;15.604;2022-10-16T14:33:50;1.50;;;1.30;;
40793;SDS011;26502;51.886;15.604;2022-10-16T14:39:01;1.40;;;1.30;;
40793;SDS011;26502;51.886;15.604;2022-10-16T14:44:10;1.80;;;1.70;;
40793;SDS011;26502;51.886;15.604;2022-10-16T14:49:19;5.90;;;1.90;;
40793;SDS011;26502;51.886;15.604;2022-10-16T14:54:28;2.10;;;1.40;;
40793;SDS011;26502;51.886;15.604;2022-10-16T14:59:37;2.20;;;1.50;;
40793;SDS011;26502;51.886;15.604;2022-10-16T15:04:48;1.80;;;1.70;;
40793;SDS011;26502;51.886;15.604;2022-10-16T15:09:58;3.00;;;1.50;;
40793;SDS011;26502;51.886;15.604;2022-10-16T15:15:21;1.70;;;1.60;;
40793;SDS011;26502;51.886;15.604;2022-10-16T15:20:35;1.40;;;1.40;;
40793;SDS011;26502;51.886;15.604;2022-10-16T15:25:44;2.30;;;1.40;;
40793;SDS011;26502;51.886;15.604;2022-10-16T15:30:53;2.40;;;1.50;;
40793;SDS011;26502;51.886;15.604;2022-10-16T15:36:02;4.20;;;1.60;;
40793;SDS011;26502;51.886;15.604;2022-10-16T15:41:13;1.40;;;1.20;;
40793;SDS011;26502;51.886;15.604;2022-10-16T15:46:20;5.30;;;1.50;;
40793;SDS011;26502;51.886;15.604;2022-10-16T15:51:29;3.50;;;1.50;;
40793;SDS011;26502;51.886;15.604;2022-10-16T15:56:37;3.70;;;1.50;;
40793;SDS011;26502;51.886;15.604;2022-10-16T16:01:44;12.40;;;2.30;;
40793;SDS011;26502;51.886;15.604;2022-10-16T16:06:52;5.70;;;1.60;;
40793;SDS011;26502;51.886;15.604;2022-10-16T16:11:59;6.90;;;2.00;;
40793;SDS011;26502;51.886;15.604;2022-10-16T16:17:07;10.70;;;1.90;;
40793;SDS011;26502;51.886;15.604;2022-10-16T16:22:14;12.40;;;2.10;;
40793;SDS011;26502;51.886;15.604;2022-10-16T16:27:21;8.60;;;2.20;;
40793;SDS011;26502;51.886;15.604;2022-10-16T16:32:29;6.90;;;2.10;;
40793;SDS011;26502;51.886;15.604;2022-10-16T16:37:38;5.80;;;2.20;;
40793;SDS011;26502;51.886;15.604;2022-10-16T16:42:46;4.30;;;2.20;;
40793;SDS011;26502;51.886;15.604;2022-10-16T16:47:54;7.70;;;2.90;;
40793;SDS011;26502;51.886;15.604;2022-10-16T16:53:02;9.70;;;3.60;;
40793;SDS011;26502;51.886;15.604;2022-10-16T16:58:11;8.20;;;4.10;;
40793;SDS011;26502;51.886;15.604;2022-10-16T17:03:19;8.80;;;4.70;;
40793;SDS011;26502;51.886;15.604;2022-10-16T17:08:29;15.50;;;8.80;;
40793;SDS011;26502;51.886;15.604;2022-10-16T17:13:37;11.30;;;7.60;;
40793;SDS011;26502;51.886;15.604;2022-10-16T17:18:45;19.00;;;6.70;;
40793;SDS011;26502;51.886;15.604;2022-10-16T17:23:53;19.00;;;7.90;;
40793;SDS011;26502;51.886;15.604;2022-10-16T17:29:01;15.20;;;8.10;;
40793;SDS011;26502;51.886;15.604;2022-10-16T17:34:10;15.60;;;7.80;;
40793;SDS011;26502;51.886;15.604;2022-10-16T17:39:18;14.10;;;7.90;;
40793;SDS011;26502;51.886;15.604;2022-10-16T17:44:28;12.40;;;7.20;;
40793;SDS011;26502;51.886;15.604;2022-10-16T17:49:35;9.70;;;5.80;;
40793;SDS011;26502;51.886;15.604;2022-10-16T17:54:44;7.50;;;3.70;;
40793;SDS011;26502;51.886;15.604;2022-10-16T17:59:54;5.70;;;3.10;;
40793;SDS011;26502;51.886;15.604;2022-10-16T18:05:03;4.90;;;3.00;;
40793;SDS011;26502;51.886;15.604;2022-10-16T18:10:11;6.80;;;3.50;;
40793;SDS011;26502;51.886;15.604;2022-10-16T18:15:24;8.20;;;3.40;;
40793;SDS011;26502;51.886;15.604;2022-10-16T18:20:32;3.80;;;2.90;;
40793;SDS011;26502;51.886;15.604;2022-10-16T18:25:39;6.00;;;2.90;;
40793;SDS011;26502;51.886;15.604;2022-10-16T18:30:56;6.50;;;2.40;;
40793;SDS011;26502;51.886;15.604;2022-10-16T18:36:06;4.20;;;2.70;;
40793;SDS011;26502;51.886;15.604;2022-10-16T18:41:15;7.40;;;2.50;;
40793;SDS011;26502;51.886;15.604;2022-10-16T18:46:24;5.70;;;2.50;;
40793;SDS011;26502;51.886;15.604;2022-10-16T18:51:36;7.80;;;1.60;;
40793;SDS011;26502;51.886;15.604;2022-10-16T18:56:49;7.50;;;2.40;;
40793;SDS011;26502;51.886;15.604;2022-10-16T19:01:57;8.70;;;3.00;;
40793;SDS011;26502;51.886;15.604;2022-10-16T19:07:06;10.90;;;3.20;;
40793;SDS011;26502;51.886;15.604;2022-10-16T19:12:14;11.30;;;3.20;;
40793;SDS011;26502;51.886;15.604;2022-10-16T19:17:23;7.80;;;2.50;;
40793;SDS011;26502;51.886;15.604;2022-10-16T19:22:31;10.00;;;2.30;;
40793;SDS011;26502;51.886;15.604;2022-10-16T19:27:53;2.50;;;2.30;;
40793;SDS011;26502;51.886;15.604;2022-10-16T19:33:00;4.20;;;2.40;;
40793;SDS011;26502;51.886;15.604;2022-10-16T19:38:08;5.10;;;2.20;;
40793;SDS011;26502;51.886;15.604;2022-10-16T19:43:16;7.90;;;2.90;;
40793;SDS011;26502;51.886;15.604;2022-10-16T19:48:24;10.10;;;2.30;;
40793;SDS011;26502;51.886;15.604;2022-10-16T19:53:32;10.20;;;2.70;;
40793;SDS011;26502;51.886;15.604;2022-10-16T19:58:40;4.40;;;2.30;;
40793;SDS011;26502;51.886;15.604;2022-10-16T20:03:47;8.60;;;2.60;;
40793;SDS011;26502;51.886;15.604;2022-10-16T20:08:55;6.40;;;2.30;;
40793;SDS011;26502;51.886;15.604;2022-10-16T20:14:03;7.30;;;2.40;;
40793;SDS011;26502;51.886;15.604;2022-10-16T20:19:10;12.20;;;3.00;;
40793;SDS011;26502;51.886;15.604;2022-10-16T20:24:18;7.00;;;2.70;;
40793;SDS011;26502;51.886;15.604;2022-10-16T20:29:26;5.80;;;3.30;;
40793;SDS011;26502;51.886;15.604;2022-10-16T20:34:35;8.40;;;2.70;;
40793;SDS011;26502;51.886;15.604;2022-10-16T20:39:42;5.90;;;3.30;;
40793;SDS011;26502;51.886;15.604;2022-10-16T20:44:49;7.50;;;2.90;;
40793;SDS011;26502;51.886;15.604;2022-10-16T20:49:57;8.10;;;3.30;;
40793;SDS011;26502;51.886;15.604;2022-10-16T20:55:06;8.40;;;4.50;;
40793;SDS011;26502;51.886;15.604;2022-10-16T21:00:14;7.80;;;3.50;;
40793;SDS011;26502;51.886;15.604;2022-10-16T21:05:22;7.60;;;4.10;;
40793;SDS011;26502;51.886;15.604;2022-10-16T21:10:31;6.60;;;4.40;;
40793;SDS011;26502;51.886;15.604;2022-10-16T21:15:38;12.00;;;4.30;;
40793;SDS011;26502;51.886;15.604;2022-10-16T21:20:45;10.80;;;4.70;;
40793;SDS011;26502;51.886;15.604;2022-10-16T21:25:52;12.40;;;4.90;;
40793;SDS011;26502;51.886;15.604;2022-10-16T21:31:05;7.50;;;4.80;;
40793;SDS011;26502;51.886;15.604;2022-10-16T21:36:17;12.40;;;5.00;;
40793;SDS011;26502;51.886;15.604;2022-10-16T21:41:26;10.10;;;5.00;;
40793;SDS011;26502;51.886;15.604;2022-10-16T21:46:36;14.80;;;5.60;;
40793;SDS011;26502;51.886;15.604;2022-10-16T21:51:46;6.50;;;4.50;;
40793;SDS011;26502;51.886;15.604;2022-10-16T21:56:54;6.50;;;4.50;;
40793;SDS011;26502;51.886;15.604;2022-10-16T22:02:02;12.40;;;5.20;;
40793;SDS011;26502;51.886;15.604;2022-10-16T22:07:09;10.50;;;5.80;;
40793;SDS011;26502;51.886;15.604;2022-10-16T22:12:16;10.60;;;5.30;;
40793;SDS011;26502;51.886;15.604;2022-10-16T22:17:24;7.60;;;4.80;;
40793;SDS011;26502;51.886;15.604;2022-10-16T22:22:31;13.90;;;5.50;;
40793;SDS011;26502;51.886;15.604;2022-10-16T22:27:38;12.90;;;5.50;;
40793;SDS011;26502;51.886;15.604;2022-10-16T22:32:45;14.50;;;6.00;;
40793;SDS011;26502;51.886;15.604;2022-10-16T22:37:52;16.20;;;5.40;;
40793;SDS011;26502;51.886;15.604;2022-10-16T22:42:59;12.70;;;5.60;;
40793;SDS011;26502;51.886;15.604;2022-10-16T22:48:07;11.00;;;5.40;;
40793;SDS011;26502;51.886;15.604;2022-10-16T22:53:14;13.20;;;5.70;;
40793;SDS011;26502;51.886;15.604;2022-10-16T22:58:21;9.40;;;4.60;;
40793;SDS011;26502;51.886;15.604;2022-10-16T23:03:28;10.50;;;5.10;;
40793;SDS011;26502;51.886;15.604;2022-10-16T23:08:35;13.80;;;6.30;;
40793;SDS011;26502;51.886;15.604;2022-10-16T23:13:42;13.40;;;5.70;;
40793;SDS011;26502;51.886;15.604;2022-10-16T23:18:50;12.50;;;5.70;;
40793;SDS011;26502;51.886;15.604;2022-10-16T23:23:57;17.40;;;5.90;;
40793;SDS011;26502;51.886;15.604;2022-10-16T23:29:05;15.20;;;5.50;;
40793;SDS011;26502;51.886;15.604;2022-10-16T23:34:13;14.50;;;6.10;;
40793;SDS011;26502;51.886;15.604;2022-10-16T23:39:21;8.60;;;5.70;;
40793;SDS011;26502;51.886;15.604;2022-10-16T23:44:28;15.20;;;5.60;;
40793;SDS011;26502;51.886;15.604;2022-10-16T23:49:36;10.70;;;5.40;;
40793;SDS011;26502;51.886;15.604;2022-10-16T23:54:43;12.80;;;5.90;;
40793;SDS011;26502;51.886;15.604;2022-10-16T23:59:50;22.40;;;5.80;;
